KFFX

Fremont Municipal Airport

Fremont, Michigan, USA
METAR KFFX 191517Z AUTO 13004KT 7SM OVC007 21/20 A3002 RMK AO2 T02120195
Observed Flight Rules
Aug-19 @ 15:17 UTC (21 minutes ago) Instrument Flight Rules
Wind Visibility Clouds
130° at 4 knots 7 miles
  • Overcast at 700' AGL
Temperatures Readings
Current 21°C / 70°F
Dewpoint 20°C / 68°F
Humidity 94%
Altimeter 30.02" Hg
Pressure 1017 hPa
Elevation 236
METAR KFFX 191517Z AUTO 13004KT 7SM OVC007 21/20 A3002 RMK AO2 T02120195
Observed Flight Rules
Aug-19 @ 15:17 UTC
(21 minutes ago)
IFR
Wind Visibility
130° at 4 knots 7 miles
Clouds
  • Overcast at 700' AGL
Temperature Dewpoint
21°C / 70°F 20°C / 68°F
Humidity Altimeter Pressure
94% 30.02" Hg 1017 hPa